Time;durP1;ratioP1;P1;durP2;ratioP2;P2;SDS_P1;SDS_P2;PMS_P1;PMS_P2;Temp;Humidity;BMP_temperature;BMP_pressure;BME280_temperature;BME280_humidity;BME280_pressure;Samples;Min_cycle;Max_cycle;Signal;HPM_P1;HPM_P2
2021/01/13 00:00:09;;;;;;;9.93;1.50;;;1.80;99.90;;;;;;4999818;28;20454;-64
2021/01/13 00:02:35;;;;;;;5.67;1.33;;;1.80;99.90;;;;;;4992506;28;20435;-64
2021/01/13 00:05:03;;;;;;;3.50;0.93;;;1.80;99.90;;;;;;4985537;28;20463;-64
2021/01/13 00:07:29;;;;;;;3.97;1.50;;;1.80;99.90;;;;;;4989029;28;20469;-65
2021/01/13 00:09:56;;;;;;;4.70;1.27;;;1.70;99.90;;;;;;4986174;28;20456;-65
2021/01/13 00:12:22;;;;;;;3.10;1.30;;;1.70;99.90;;;;;;4984676;28;20462;-65
2021/01/13 00:14:48;;;;;;;1.93;1.00;;;1.80;99.90;;;;;;4987539;28;20499;-63
2021/01/13 00:17:15;;;;;;;2.37;0.97;;;1.80;99.90;;;;;;4996758;28;20504;-66
2021/01/13 00:19:41;;;;;;;7.93;1.80;;;1.70;99.90;;;;;;4998188;28;20482;-64
2021/01/13 00:22:09;;;;;;;5.00;0.90;;;1.70;99.90;;;;;;4998812;28;20446;-65
2021/01/13 00:24:35;;;;;;;6.23;2.17;;;1.70;99.90;;;;;;4980572;29;20475;-65
2021/01/13 00:27:02;;;;;;;5.33;1.63;;;1.70;99.90;;;;;;4995012;28;20524;-64
2021/01/13 00:29:29;;;;;;;8.60;1.50;;;1.70;99.90;;;;;;4995141;28;20444;-64
2021/01/13 00:31:56;;;;;;;5.00;1.10;;;1.70;99.90;;;;;;4994692;28;20457;-64
2021/01/13 00:34:23;;;;;;;5.10;2.33;;;1.70;99.90;;;;;;4991928;28;20443;-65
2021/01/13 00:36:50;;;;;;;1.10;0.90;;;1.70;99.90;;;;;;4986613;28;20443;-66
2021/01/13 00:39:17;;;;;;;4.80;1.17;;;1.70;99.90;;;;;;4989693;28;20428;-65
2021/01/13 00:41:44;;;;;;;1.10;0.60;;;1.70;99.90;;;;;;4984660;28;20468;-65
2021/01/13 00:44:10;;;;;;;1.83;1.07;;;1.70;99.90;;;;;;4988339;28;20467;-64
2021/01/13 00:46:39;;;;;;;2.93;0.97;;;1.60;99.90;;;;;;4982374;28;20470;-64
2021/01/13 00:49:06;;;;;;;0.80;0.63;;;1.70;99.90;;;;;;4988751;28;20583;-66
2021/01/13 00:51:36;;;;;;;2.40;1.00;;;1.70;99.90;;;;;;4983731;28;20448;-66
2021/01/13 00:54:04;;;;;;;5.40;2.00;;;1.70;99.90;;;;;;4984229;28;20464;-65
2021/01/13 00:56:31;;;;;;;7.33;1.00;;;1.70;99.90;;;;;;4988399;28;20456;-65
2021/01/13 00:58:59;;;;;;;4.53;1.43;;;1.80;99.90;;;;;;4987993;28;20493;-65
2021/01/13 01:01:27;;;;;;;1.40;0.70;;;1.80;99.90;;;;;;4980879;28;20960;-66
2021/01/13 01:03:54;;;;;;;2.77;1.40;;;1.70;99.90;;;;;;4975880;28;20470;-65
2021/01/13 01:06:20;;;;;;;4.70;1.10;;;1.70;99.90;;;;;;4988910;28;20438;-66
2021/01/13 01:08:47;;;;;;;7.57;1.30;;;1.70;99.90;;;;;;4988752;28;20575;-67
2021/01/13 01:11:17;;;;;;;1.83;0.90;;;1.70;99.90;;;;;;4984763;28;20491;-67
2021/01/13 01:13:45;;;;;;;4.70;1.53;;;1.70;99.90;;;;;;4980865;28;20467;-67
2021/01/13 01:16:11;;;;;;;3.83;1.10;;;1.70;99.90;;;;;;4979949;28;20420;-67
2021/01/13 01:18:40;;;;;;;6.20;1.30;;;1.70;99.90;;;;;;4974331;28;20446;-66
2021/01/13 01:26:17;;;;;;;3.50;1.47;;;1.70;99.90;;;;;;5680138;23;20480;-65
2021/01/13 01:28:45;;;;;;;1.73;0.80;;;1.70;99.90;;;;;;5024632;28;20485;-63
2021/01/13 01:31:11;;;;;;;2.77;1.10;;;1.70;99.90;;;;;;5023658;28;20449;-64
2021/01/13 01:33:38;;;;;;;4.10;1.53;;;1.70;99.90;;;;;;5028793;28;20442;-64
2021/01/13 01:36:05;;;;;;;8.00;1.50;;;1.70;99.90;;;;;;5028786;28;20440;-63
2021/01/13 01:38:31;;;;;;;2.17;0.90;;;1.70;99.90;;;;;;5029764;28;20434;-65
2021/01/13 01:41:03;;;;;;;3.93;1.50;;;1.60;99.90;;;;;;5034688;28;20464;-64
2021/01/13 01:43:29;;;;;;;4.07;1.33;;;1.70;99.90;;;;;;5017824;28;20442;-64
2021/01/13 01:45:57;;;;;;;8.60;1.47;;;1.70;99.90;;;;;;5031159;28;20533;-63
2021/01/13 01:48:28;;;;;;;4.63;1.83;;;1.70;99.90;;;;;;5029260;28;20532;-64
2021/01/13 01:51:43;;;;;;;4.90;1.93;;;1.80;99.90;;;;;;5261572;23;20475;-64
2021/01/13 01:54:17;;;;;;;6.23;2.23;;;1.70;99.90;;;;;;4886365;29;20475;-65
2021/01/13 01:56:44;;;;;;;3.17;1.70;;;1.70;99.90;;;;;;4955064;29;20467;-64
2021/01/13 01:59:12;;;;;;;3.13;1.97;;;1.70;99.90;;;;;;4969652;29;20508;-64
2021/01/13 02:01:41;;;;;;;6.80;1.87;;;1.70;99.90;;;;;;4966902;29;20456;-65
2021/01/13 02:04:16;;;;;;;1.83;1.67;;;1.80;99.90;;;;;;4975276;29;20460;-64
2021/01/13 02:07:19;;;;;;;3.70;1.57;;;1.80;99.90;;;;;;4962994;29;20437;-65
2021/01/13 02:09:49;;;;;;;7.20;1.80;;;1.90;99.90;;;;;;4972090;29;20439;-65
2021/01/13 02:12:21;;;;;;;7.43;2.17;;;1.90;99.90;;;;;;4975581;29;20478;-65
2021/01/13 02:14:47;;;;;;;3.20;2.13;;;1.90;99.90;;;;;;4957963;29;20457;-65
2021/01/13 02:17:16;;;;;;;3.43;1.90;;;1.90;99.90;;;;;;4957946;29;21026;-66
2021/01/13 02:20:10;;;;;;;2.00;1.80;;;1.90;99.90;;;;;;4957834;29;20516;-65
2021/01/13 02:22:39;;;;;;;2.93;1.43;;;2.00;99.90;;;;;;4957268;29;20452;-64
2021/01/13 02:25:49;;;;;;;6.03;1.40;;;2.00;99.90;;;;;;4957929;29;20497;-64
2021/01/13 02:28:21;;;;;;;4.00;1.70;;;2.00;99.90;;;;;;4957722;29;20507;-64
2021/01/13 02:31:25;;;;;;;5.03;1.87;;;2.00;99.90;;;;;;4958401;29;20456;-65
2021/01/13 02:33:55;;;;;;;2.83;1.20;;;2.00;99.90;;;;;;4957857;29;20452;-65
2021/01/13 02:36:41;;;;;;;8.50;2.27;;;2.00;99.90;;;;;;4957652;29;20455;-64
2021/01/13 02:39:08;;;;;;;1.87;1.47;;;2.10;99.90;;;;;;4958036;29;20425;-65
2021/01/13 02:41:45;;;;;;;3.50;1.70;;;2.10;99.90;;;;;;4957187;29;20440;-66
2021/01/13 02:44:16;;;;;;;6.93;1.43;;;2.10;99.90;;;;;;4957506;29;20533;-65
2021/01/13 02:46:59;;;;;;;5.80;2.00;;;2.20;99.90;;;;;;4958823;29;20437;-65
2021/01/13 02:49:27;;;;;;;2.03;1.27;;;2.20;99.90;;;;;;4959334;29;20460;-65
2021/01/13 02:51:56;;;;;;;7.37;2.80;;;2.20;99.90;;;;;;4958990;29;20519;-65
2021/01/13 02:54:33;;;;;;;5.13;1.80;;;2.20;99.90;;;;;;4960132;29;20448;-66
2021/01/13 02:57:07;;;;;;;7.40;2.43;;;2.20;99.90;;;;;;4959861;28;20475;-66
2021/01/13 02:59:38;;;;;;;3.70;1.57;;;2.20;99.90;;;;;;4959785;29;20437;-66
2021/01/13 03:02:10;;;;;;;2.53;1.53;;;2.20;99.90;;;;;;4958627;29;20429;-68
2021/01/13 03:04:36;;;;;;;6.60;1.93;;;2.20;99.90;;;;;;4958169;29;20409;-65
2021/01/13 03:07:10;;;;;;;5.43;2.17;;;2.20;99.90;;;;;;4958242;29;20460;-66
2021/01/13 03:09:38;;;;;;;15.23;2.40;;;2.20;99.90;;;;;;4959325;28;20468;-65
2021/01/13 03:12:17;;;;;;;6.13;2.00;;;2.30;99.90;;;;;;4959794;29;20448;-65
2021/01/13 03:14:51;;;;;;;2.40;1.77;;;2.30;99.90;;;;;;4958963;29;20508;-65
2021/01/13 03:17:47;;;;;;;5.63;1.27;;;2.30;99.90;;;;;;4957494;29;20525;-65
2021/01/13 03:20:25;;;;;;;6.30;1.70;;;2.30;99.90;;;;;;4957413;29;20464;-65
2021/01/13 03:22:58;;;;;;;4.30;2.20;;;2.30;99.90;;;;;;4958710;29;20435;-68
2021/01/13 03:25:25;;;;;;;7.67;1.67;;;2.40;99.90;;;;;;4959521;29;20480;-66
2021/01/13 03:27:55;;;;;;;7.73;2.10;;;2.40;99.90;;;;;;4958867;29;20480;-65
2021/01/13 03:30:25;;;;;;;2.97;1.93;;;2.30;99.90;;;;;;4959291;28;20441;-68
2021/01/13 03:33:09;;;;;;;2.73;1.60;;;2.40;99.90;;;;;;4960542;29;20461;-65
2021/01/13 03:35:42;;;;;;;3.70;2.20;;;2.40;99.90;;;;;;4962837;29;20455;-65
2021/01/13 03:38:13;;;;;;;2.87;1.60;;;2.30;99.90;;;;;;4963249;29;20437;-66
2021/01/13 03:40:42;;;;;;;4.63;1.90;;;2.30;99.90;;;;;;4963103;28;20437;-67
2021/01/13 03:43:18;;;;;;;7.63;1.90;;;2.30;99.90;;;;;;4962581;29;20476;-66
2021/01/13 03:45:49;;;;;;;3.30;1.77;;;2.20;99.90;;;;;;4961953;29;20436;-66
2021/01/13 03:48:35;;;;;;;9.80;1.77;;;2.20;99.90;;;;;;4962045;28;20456;-66
2021/01/13 03:51:03;;;;;;;5.90;2.20;;;2.20;99.90;;;;;;4961553;29;20488;-64
2021/01/13 03:53:39;;;;;;;7.63;2.13;;;2.20;99.90;;;;;;4961568;29;20490;-65
2021/01/13 03:56:07;;;;;;;2.13;1.47;;;2.30;99.90;;;;;;4961623;29;20460;-66
2021/01/13 03:58:50;;;;;;;5.10;2.73;;;2.30;99.90;;;;;;4960994;29;20464;-66
2021/01/13 04:01:47;;;;;;;7.30;2.00;;;2.40;99.90;;;;;;4963018;28;20447;-67
2021/01/13 04:04:43;;;;;;;4.20;2.10;;;2.40;99.90;;;;;;4963058;29;20433;-66
2021/01/13 04:07:12;;;;;;;2.90;1.47;;;2.40;99.90;;;;;;4955041;29;20433;-66
2021/01/13 04:09:39;;;;;;;4.47;1.80;;;2.40;99.90;;;;;;4961817;29;20484;-66
2021/01/13 04:12:14;;;;;;;4.93;1.60;;;2.40;99.90;;;;;;4961905;29;20484;-66
2021/01/13 04:14:55;;;;;;;4.30;2.40;;;2.40;99.90;;;;;;4961728;28;20444;-66
2021/01/13 04:17:24;;;;;;;8.33;2.70;;;2.40;99.90;;;;;;4961634;29;20437;-66
2021/01/13 04:19:51;;;;;;;7.90;2.63;;;2.40;99.90;;;;;;4962488;28;20481;-66
2021/01/13 04:22:19;;;;;;;2.83;2.03;;;2.30;99.90;;;;;;4961254;29;20453;-66
2021/01/13 04:24:47;;;;;;;6.23;2.20;;;2.30;99.90;;;;;;4962552;28;20448;-66
2021/01/13 04:27:15;;;;;;;9.50;2.33;;;2.40;99.90;;;;;;4962268;28;20437;-66
2021/01/13 04:29:42;;;;;;;5.90;2.67;;;2.40;99.90;;;;;;4961948;29;20488;-67
2021/01/13 04:32:10;;;;;;;3.20;1.67;;;2.40;99.90;;;;;;4962280;29;20587;-66
2021/01/13 04:34:40;;;;;;;4.90;2.53;;;2.40;99.90;;;;;;4961996;28;20520;-66
2021/01/13 04:37:08;;;;;;;4.30;2.20;;;2.30;99.90;;;;;;4962316;28;20437;-66
2021/01/13 04:39:36;;;;;;;3.30;1.90;;;2.40;99.90;;;;;;4962097;28;20484;-69
2021/01/13 04:42:08;;;;;;;4.07;2.50;;;2.40;99.90;;;;;;4961923;28;20437;-67
2021/01/13 04:44:35;;;;;;;8.10;1.87;;;2.40;99.90;;;;;;4961469;28;20421;-66
2021/01/13 04:52:30;;;;;;;3.73;1.43;;;2.30;99.90;;;;;;6033662;23;20426;-62
2021/01/13 04:54:58;;;;;;;7.33;2.00;;;2.30;99.90;;;;;;4981298;29;20428;-66
2021/01/13 04:58:09;;;;;;;3.00;2.00;;;2.20;99.90;;;;;;4980641;29;20474;-65
2021/01/13 05:01:06;;;;;;;5.00;2.23;;;2.30;99.90;;;;;;4980776;28;20448;-66
2021/01/13 05:03:42;;;;;;;8.37;2.60;;;2.30;99.90;;;;;;4980414;29;20483;-65
2021/01/13 05:06:42;;;;;;;9.13;2.00;;;2.20;99.90;;;;;;4980967;29;20428;-66
2021/01/13 05:09:10;;;;;;;7.20;3.07;;;2.20;99.90;;;;;;4980769;29;20500;-67
2021/01/13 05:11:40;;;;;;;4.30;2.17;;;2.20;99.90;;;;;;4980694;28;20451;-69
2021/01/13 05:14:10;;;;;;;6.53;2.20;;;2.20;99.90;;;;;;4979653;29;20431;-66
2021/01/13 05:16:59;;;;;;;2.60;1.97;;;2.20;99.90;;;;;;4979629;29;20447;-66
2021/01/13 05:20:05;;;;;;;5.57;2.23;;;2.20;99.90;;;;;;4979785;28;20444;-66
2021/01/13 05:22:33;;;;;;;2.70;1.97;;;2.20;99.90;;;;;;4979916;29;20436;-67
2021/01/13 05:25:03;;;;;;;9.20;2.20;;;2.10;99.90;;;;;;4979492;29;20455;-65
2021/01/13 05:27:59;;;;;;;6.20;2.50;;;2.20;99.90;;;;;;4979942;29;20432;-67
2021/01/13 05:30:30;;;;;;;3.43;2.13;;;2.20;99.90;;;;;;4980220;28;20500;-67
2021/01/13 05:32:57;;;;;;;3.63;2.10;;;2.20;99.90;;;;;;4979100;29;20440;-65
2021/01/13 05:35:29;;;;;;;4.00;1.67;;;2.20;99.90;;;;;;4978785;29;20443;-66
2021/01/13 05:38:06;;;;;;;9.90;2.00;;;2.20;99.90;;;;;;4979170;29;20408;-66
2021/01/13 05:40:40;;;;;;;2.70;1.40;;;2.20;99.90;;;;;;4979002;29;20412;-67
2021/01/13 05:43:07;;;;;;;3.07;1.70;;;2.20;99.90;;;;;;4979197;29;20428;-65
2021/01/13 05:45:37;;;;;;;1.77;1.20;;;2.20;99.90;;;;;;4979234;29;20454;-64
2021/01/13 05:48:15;;;;;;;2.20;1.40;;;2.20;99.90;;;;;;4979151;29;20460;-65
2021/01/13 05:50:42;;;;;;;4.97;1.90;;;2.10;99.90;;;;;;4978971;28;20443;-66
2021/01/13 05:53:10;;;;;;;2.37;1.80;;;2.10;99.90;;;;;;4978520;29;20480;-66
2021/01/13 05:55:46;;;;;;;4.33;2.37;;;2.20;99.90;;;;;;4978967;28;20451;-65
2021/01/13 05:58:13;;;;;;;14.13;2.23;;;2.20;99.90;;;;;;4978847;29;20448;-65
2021/01/13 06:00:40;;;;;;;5.50;2.07;;;2.20;99.90;;;;;;4979158;29;20452;-65
2021/01/13 06:03:10;;;;;;;7.13;1.97;;;2.20;99.90;;;;;;4979083;29;20475;-66
2021/01/13 06:05:49;;;;;;;2.10;1.73;;;2.20;99.90;;;;;;4978734;29;20444;-64
2021/01/13 06:08:16;;;;;;;6.23;1.80;;;2.20;99.90;;;;;;4979040;29;20523;-65
2021/01/13 06:10:44;;;;;;;6.20;2.17;;;2.10;99.90;;;;;;4979234;29;20456;-65
2021/01/13 06:13:17;;;;;;;3.63;1.67;;;2.00;99.90;;;;;;4979291;28;20452;-66
2021/01/13 06:15:45;;;;;;;4.00;2.20;;;2.00;99.90;;;;;;4979424;28;20463;-65
2021/01/13 06:18:15;;;;;;;4.50;2.60;;;2.00;99.90;;;;;;4979056;29;20448;-65
2021/01/13 06:20:42;;;;;;;5.23;2.07;;;2.00;99.90;;;;;;4979135;29;20546;-64
2021/01/13 06:23:12;;;;;;;10.43;1.90;;;2.00;99.90;;;;;;4978819;29;20432;-66
2021/01/13 06:25:42;;;;;;;3.60;2.30;;;2.10;99.90;;;;;;4979061;29;20468;-67
2021/01/13 06:28:25;;;;;;;3.57;2.13;;;2.10;99.90;;;;;;4962919;28;20502;-66
2021/01/13 06:31:06;;;;;;;7.77;2.60;;;2.10;99.90;;;;;;4979299;29;20436;-66
2021/01/13 06:33:40;;;;;;;8.13;1.90;;;2.20;99.90;;;;;;4979103;28;20452;-66
2021/01/13 06:36:21;;;;;;;6.93;1.83;;;2.20;99.90;;;;;;4979863;28;20452;-66
2021/01/13 06:38:55;;;;;;;7.90;1.70;;;2.20;99.90;;;;;;4979485;29;20435;-66
2021/01/13 06:41:21;;;;;;;4.60;2.33;;;2.20;99.90;;;;;;4979331;29;20428;-66
2021/01/13 06:44:03;;;;;;;4.17;2.20;;;2.20;99.90;;;;;;4978953;29;20455;-66
2021/01/13 06:46:32;;;;;;;8.23;2.63;;;2.30;99.90;;;;;;4971442;29;20440;-66
2021/01/13 06:49:15;;;;;;;2.03;1.57;;;2.30;99.90;;;;;;4978556;28;20479;-65
2021/01/13 06:51:43;;;;;;;4.37;2.30;;;2.40;99.90;;;;;;4978540;29;20464;-65
2021/01/13 06:54:12;;;;;;;9.27;1.93;;;2.40;99.90;;;;;;4978350;29;20503;-66
2021/01/13 06:56:50;;;;;;;4.87;1.73;;;2.30;99.90;;;;;;4977926;29;20439;-65
2021/01/13 06:59:19;;;;;;;6.60;2.30;;;2.30;99.90;;;;;;4977373;29;20443;-65
2021/01/13 07:01:53;;;;;;;3.03;1.70;;;2.30;99.90;;;;;;4977915;29;20490;-66
2021/01/13 07:04:23;;;;;;;2.00;1.40;;;2.40;99.90;;;;;;4977162;29;20424;-66
2021/01/13 07:07:00;;;;;;;3.30;1.70;;;2.30;99.90;;;;;;4976953;28;20452;-66
2021/01/13 07:09:34;;;;;;;6.90;2.53;;;2.40;99.90;;;;;;4980975;29;20514;-66
2021/01/13 07:12:10;;;;;;;6.60;1.97;;;2.40;99.90;;;;;;4964709;29;20471;-65
2021/01/13 07:14:40;;;;;;;4.20;2.37;;;2.40;99.90;;;;;;4981985;29;20442;-66
2021/01/13 07:17:13;;;;;;;2.97;1.80;;;2.50;99.90;;;;;;4980193;29;20491;-66
2021/01/13 07:19:45;;;;;;;4.73;1.83;;;2.40;99.90;;;;;;4980236;29;20463;-66
2021/01/13 07:22:13;;;;;;;4.10;1.87;;;2.40;99.90;;;;;;4981129;29;20456;-65
2021/01/13 07:24:42;;;;;;;4.83;2.00;;;2.40;99.90;;;;;;4980584;29;20447;-65
2021/01/13 07:27:11;;;;;;;4.13;1.57;;;2.40;99.90;;;;;;4980805;29;20448;-64
2021/01/13 07:29:39;;;;;;;10.43;2.13;;;2.40;99.90;;;;;;4980410;29;20571;-65
2021/01/13 07:32:08;;;;;;;7.90;2.87;;;2.40;99.90;;;;;;4980162;29;20462;-65
2021/01/13 07:34:36;;;;;;;2.60;1.97;;;2.40;99.90;;;;;;4979785;29;20435;-65
2021/01/13 07:37:06;;;;;;;7.97;2.27;;;2.50;99.90;;;;;;4980026;29;20451;-64
2021/01/13 07:40:15;;;;;;;5.10;1.97;;;2.50;99.90;;;;;;4980514;29;20451;-65
2021/01/13 07:42:43;;;;;;;6.23;1.87;;;2.50;99.90;;;;;;4980687;29;20436;-65
2021/01/13 07:45:12;;;;;;;3.37;1.43;;;2.60;99.90;;;;;;4980219;29;20528;-65
2021/01/13 07:48:21;;;;;;;3.47;1.73;;;2.60;99.90;;;;;;4979790;29;20466;-64
2021/01/13 07:50:49;;;;;;;10.23;1.83;;;2.50;99.90;;;;;;4980139;28;20459;-65
2021/01/13 07:53:35;;;;;;;10.47;3.30;;;2.60;99.90;;;;;;4979661;29;20476;-64
2021/01/13 07:56:03;;;;;;;3.30;1.60;;;2.60;99.90;;;;;;4978677;29;20473;-64
2021/01/13 07:58:31;;;;;;;4.53;1.83;;;2.60;99.90;;;;;;4980013;29;20463;-64
2021/01/13 08:01:15;;;;;;;5.90;2.40;;;2.60;99.90;;;;;;4979429;29;20476;-64
2021/01/13 08:04:19;;;;;;;6.77;2.70;;;2.70;99.90;;;;;;4967289;29;20466;-65
2021/01/13 08:06:49;;;;;;;7.30;1.93;;;2.70;99.90;;;;;;4979266;29;20443;-65
2021/01/13 08:09:18;;;;;;;6.13;1.57;;;2.80;99.90;;;;;;4979584;29;20479;-65
2021/01/13 08:12:24;;;;;;;6.33;2.20;;;2.80;99.90;;;;;;4980295;29;20454;-65
2021/01/13 08:15:44;;;;;;;5.17;2.37;;;2.70;99.90;;;;;;4980294;28;20471;-64
2021/01/13 08:19:08;;;;;;;3.07;2.20;;;2.80;99.90;;;;;;4969500;29;20436;-65
2021/01/13 08:21:40;;;;;;;3.60;2.07;;;2.90;99.90;;;;;;4979209;29;20415;-65
2021/01/13 08:24:15;;;;;;;3.77;2.17;;;2.80;99.90;;;;;;4979247;29;20440;-64
2021/01/13 08:26:42;;;;;;;4.60;2.70;;;2.80;99.90;;;;;;4979130;29;20506;-65
2021/01/13 08:29:19;;;;;;;3.70;1.93;;;2.80;99.90;;;;;;4980631;29;20523;-66
2021/01/13 08:31:51;;;;;;;3.43;2.10;;;2.80;99.90;;;;;;4980285;29;20452;-67
2021/01/13 08:34:22;;;;;;;4.83;1.87;;;2.80;99.90;;;;;;4980679;29;20503;-66
2021/01/13 08:36:54;;;;;;;4.30;2.10;;;2.90;99.90;;;;;;4980959;29;20463;-67
2021/01/13 08:39:28;;;;;;;3.60;1.70;;;2.80;99.90;;;;;;4980381;28;20471;-65
2021/01/13 08:42:21;;;;;;;3.80;2.33;;;2.80;99.90;;;;;;4980555;29;20532;-66
2021/01/13 08:44:49;;;;;;;7.03;1.67;;;2.80;99.90;;;;;;4980859;29;20448;-67
2021/01/13 08:47:16;;;;;;;3.73;1.97;;;2.90;99.90;;;;;;4980213;29;20448;-66
2021/01/13 08:49:44;;;;;;;2.30;1.47;;;3.00;99.90;;;;;;4980414;29;20479;-66
2021/01/13 08:52:16;;;;;;;4.90;1.67;;;3.00;99.90;;;;;;4980455;29;20456;-64
2021/01/13 08:54:44;;;;;;;1.77;1.57;;;2.90;99.90;;;;;;4980619;29;20459;-66
2021/01/13 08:57:13;;;;;;;8.00;1.60;;;3.00;99.90;;;;;;4980422;29;20450;-66
2021/01/13 08:59:44;;;;;;;8.60;2.23;;;3.00;99.90;;;;;;4980108;29;20466;-66
2021/01/13 09:02:15;;;;;;;3.57;1.60;;;3.10;99.90;;;;;;4980293;29;20515;-66
2021/01/13 09:04:53;;;;;;;2.43;1.73;;;3.10;99.90;;;;;;4980162;29;20444;-66
2021/01/13 09:07:22;;;;;;;12.17;2.30;;;3.20;99.90;;;;;;4979970;29;20448;-66
2021/01/13 09:09:57;;;;;;;2.67;1.97;;;3.20;99.90;;;;;;4979607;29;20478;-66
2021/01/13 09:12:37;;;;;;;1.47;1.27;;;3.20;99.90;;;;;;4979718;28;20491;-67
2021/01/13 09:15:21;;;;;;;4.30;1.70;;;3.30;99.90;;;;;;4979826;29;20459;-66
2021/01/13 09:17:53;;;;;;;11.10;2.43;;;3.40;99.90;;;;;;4979322;29;20439;-67
2021/01/13 09:20:24;;;;;;;5.17;1.70;;;3.40;99.90;;;;;;4979333;29;20443;-66
2021/01/13 09:22:53;;;;;;;3.03;2.30;;;3.30;99.90;;;;;;4979610;29;20479;-67
2021/01/13 09:25:23;;;;;;;2.97;1.20;;;3.30;99.90;;;;;;4979350;29;20491;-67
2021/01/13 09:27:52;;;;;;;9.83;1.97;;;3.30;99.90;;;;;;4975603;29;20564;-68
2021/01/13 09:30:38;;;;;;;4.73;2.03;;;3.30;99.90;;;;;;4977613;28;20432;-65
2021/01/13 09:33:10;;;;;;;11.40;1.73;;;3.40;99.90;;;;;;4970008;29;20440;-65
2021/01/13 09:35:41;;;;;;;5.03;2.20;;;3.40;99.90;;;;;;4977481;29;20435;-62
2021/01/13 09:38:10;;;;;;;4.20;1.27;;;3.40;99.90;;;;;;4977654;29;20458;-63
2021/01/13 09:40:59;;;;;;;5.20;1.40;;;3.30;99.90;;;;;;4979134;29;20428;-62
2021/01/13 09:43:36;;;;;;;4.10;1.67;;;3.30;99.90;;;;;;4990057;28;20458;-61
2021/01/13 09:46:06;;;;;;;3.43;1.30;;;3.30;99.90;;;;;;4997995;28;20434;-63
2021/01/13 09:48:34;;;;;;;3.77;1.13;;;3.40;99.90;;;;;;4997961;28;20483;-62
2021/01/13 09:51:05;;;;;;;14.83;2.57;;;3.30;99.90;;;;;;4997872;28;20849;-61
2021/01/13 09:53:35;;;;;;;5.23;1.87;;;3.40;99.90;;;;;;4993861;28;20523;-62
2021/01/13 09:56:06;;;;;;;2.63;1.33;;;3.40;99.90;;;;;;4979490;29;20451;-64
2021/01/13 09:58:38;;;;;;;2.33;1.30;;;3.50;99.90;;;;;;4978492;29;20503;-63
2021/01/13 10:01:15;;;;;;;9.13;4.50;;;3.60;99.90;;;;;;4977198;29;20443;-62
2021/01/13 10:03:44;;;;;;;4.70;1.20;;;3.60;99.90;;;;;;4977882;29;20478;-63
2021/01/13 10:06:18;;;;;;;3.83;1.73;;;3.60;99.90;;;;;;4978342;29;20553;-63
2021/01/13 10:08:45;;;;;;;4.33;1.67;;;3.60;99.90;;;;;;4978434;29;20487;-62
2021/01/13 10:11:15;;;;;;;2.53;1.33;;;3.70;99.90;;;;;;4978849;29;20434;-63
2021/01/13 10:13:44;;;;;;;8.37;1.57;;;3.70;99.90;;;;;;4978526;29;20524;-62
2021/01/13 10:16:13;;;;;;;7.43;2.27;;;3.70;99.90;;;;;;4978169;29;20436;-63
2021/01/13 10:18:52;;;;;;;3.10;2.03;;;3.70;99.90;;;;;;4972918;29;20550;-63
2021/01/13 10:21:24;;;;;;;4.27;2.00;;;3.60;99.90;;;;;;4964043;29;20542;-63
2021/01/13 10:23:54;;;;;;;3.83;1.80;;;3.60;99.90;;;;;;4957774;29;20544;-63
2021/01/13 10:26:21;;;;;;;4.23;2.00;;;3.60;99.90;;;;;;4971008;29;20452;-66
2021/01/13 10:28:57;;;;;;;5.47;1.77;;;3.60;99.90;;;;;;4965289;29;20494;-63
2021/01/13 10:31:43;;;;;;;3.13;1.87;;;3.60;99.90;;;;;;4967588;29;20437;-62
2021/01/13 10:34:13;;;;;;;5.03;1.43;;;3.70;99.90;;;;;;4960409;29;20450;-63
2021/01/13 10:36:45;;;;;;;5.33;1.83;;;3.70;99.90;;;;;;4960811;29;20457;-62
2021/01/13 10:39:15;;;;;;;5.70;1.43;;;3.70;99.90;;;;;;4970385;29;20432;-63
2021/01/13 10:41:44;;;;;;;3.43;1.90;;;3.80;99.90;;;;;;4961615;29;20508;-63
2021/01/13 10:44:19;;;;;;;3.40;1.37;;;3.80;99.90;;;;;;4963025;29;20499;-63
2021/01/13 10:46:57;;;;;;;3.93;1.70;;;3.80;99.90;;;;;;4960060;29;20452;-63
2021/01/13 10:49:33;;;;;;;1.93;1.07;;;3.80;99.90;;;;;;4964938;29;20480;-62
2021/01/13 10:52:04;;;;;;;2.90;1.20;;;3.70;99.90;;;;;;4954377;29;20461;-62
2021/01/13 10:54:34;;;;;;;7.27;2.57;;;3.80;99.90;;;;;;4955299;29;20509;-64
2021/01/13 10:57:03;;;;;;;1.67;0.90;;;3.80;99.90;;;;;;4961441;29;20440;-62
2021/01/13 10:59:30;;;;;;;4.70;1.07;;;3.80;99.90;;;;;;4954344;29;20436;-64
2021/01/13 11:02:03;;;;;;;4.10;1.33;;;3.80;99.90;;;;;;4968902;29;20520;-62
2021/01/13 11:04:33;;;;;;;2.70;1.37;;;3.80;99.90;;;;;;4962707;29;20472;-63
2021/01/13 11:07:03;;;;;;;9.93;3.43;;;3.80;99.90;;;;;;4951238;29;20455;-65
2021/01/13 11:09:34;;;;;;;1.87;1.10;;;3.80;99.90;;;;;;4950847;29;20480;-60
2021/01/13 11:12:02;;;;;;;5.30;1.27;;;3.80;99.90;;;;;;4953091;29;20485;-63
2021/01/13 11:14:33;;;;;;;2.33;1.37;;;3.90;99.90;;;;;;4953523;29;20444;-63
2021/01/13 11:17:09;;;;;;;3.23;1.37;;;3.90;99.90;;;;;;4956788;29;20456;-63
2021/01/13 11:19:57;;;;;;;7.00;2.17;;;3.90;99.90;;;;;;4967923;29;20451;-61
2021/01/13 11:22:44;;;;;;;4.20;1.43;;;3.90;99.90;;;;;;4956101;29;20485;-59
2021/01/13 11:25:20;;;;;;;15.50;2.03;;;3.90;99.90;;;;;;4955478;29;20456;-61
2021/01/13 11:27:54;;;;;;;4.10;1.80;;;3.90;99.90;;;;;;4967835;29;20470;-61
2021/01/13 11:30:21;;;;;;;6.00;1.57;;;3.90;99.90;;;;;;4950916;29;20990;-61
2021/01/13 11:32:52;;;;;;;4.20;1.60;;;3.90;99.90;;;;;;4959399;29;20587;-60
2021/01/13 11:35:26;;;;;;;3.40;1.33;;;3.90;99.90;;;;;;4958543;29;20520;-62
2021/01/13 11:38:25;;;;;;;2.60;1.60;;;3.90;99.90;;;;;;4952290;29;20549;-61
2021/01/13 11:41:20;;;;;;;3.50;1.60;;;4.00;99.90;;;;;;4956431;29;20456;-60
2021/01/13 11:44:04;;;;;;;6.10;2.67;;;4.00;99.90;;;;;;4956891;29;20516;-60
2021/01/13 11:46:38;;;;;;;6.77;1.73;;;4.00;99.90;;;;;;4949025;29;20978;-62
2021/01/13 11:49:20;;;;;;;9.40;2.07;;;4.00;99.90;;;;;;4954065;29;20571;-61
2021/01/13 11:51:49;;;;;;;7.60;2.00;;;4.00;99.90;;;;;;4949502;29;20447;-60
2021/01/13 11:54:29;;;;;;;6.43;2.03;;;4.00;99.90;;;;;;4951206;29;20476;-61
2021/01/13 11:57:23;;;;;;;3.50;1.60;;;4.10;99.90;;;;;;4962646;29;20475;-61
2021/01/13 11:59:53;;;;;;;6.53;2.30;;;4.10;99.90;;;;;;4960683;29;20439;-61
2021/01/13 12:02:22;;;;;;;5.43;1.83;;;4.10;99.90;;;;;;4961613;29;20507;-63
2021/01/13 12:04:50;;;;;;;4.30;2.17;;;4.10;99.90;;;;;;4958617;29;20478;-62
2021/01/13 12:07:20;;;;;;;1.57;1.20;;;4.20;99.90;;;;;;4958664;29;20448;-61
2021/01/13 12:10:08;;;;;;;4.30;1.27;;;4.30;99.90;;;;;;4950121;29;20481;-63
2021/01/13 12:12:34;;;;;;;8.83;1.93;;;4.40;99.90;;;;;;4952800;29;20447;-59
2021/01/13 12:15:07;;;;;;;3.37;1.70;;;4.50;99.90;;;;;;4960707;29;20447;-60
2021/01/13 12:17:35;;;;;;;3.67;1.90;;;4.40;99.90;;;;;;4956360;29;20452;-57
2021/01/13 12:20:02;;;;;;;9.60;1.63;;;4.40;99.90;;;;;;4955677;29;20527;-60
2021/01/13 12:22:36;;;;;;;9.23;1.80;;;4.40;99.90;;;;;;4957758;29;20449;-61
2021/01/13 12:25:07;;;;;;;4.40;2.80;;;4.50;99.90;;;;;;4953816;29;20931;-61
2021/01/13 12:27:35;;;;;;;2.70;1.20;;;4.50;99.90;;;;;;4958140;29;20460;-60
2021/01/13 12:30:12;;;;;;;3.73;1.70;;;4.50;99.90;;;;;;4960285;29;20523;-58
2021/01/13 12:32:40;;;;;;;4.67;1.50;;;4.50;99.90;;;;;;4953094;29;20475;-61
2021/01/13 12:35:10;;;;;;;7.10;3.20;;;4.50;99.90;;;;;;4960555;29;20452;-60
2021/01/13 12:37:50;;;;;;;5.93;1.80;;;4.40;99.90;;;;;;4961462;29;20452;-61
2021/01/13 12:40:29;;;;;;;6.70;1.83;;;4.40;99.90;;;;;;4952234;29;20529;-60
2021/01/13 12:42:56;;;;;;;6.60;2.80;;;4.30;99.90;;;;;;4959405;29;20960;-61
2021/01/13 12:45:26;;;;;;;5.33;1.63;;;4.30;99.90;;;;;;4957896;29;20443;-61
2021/01/13 12:47:58;;;;;;;10.33;2.27;;;4.30;99.90;;;;;;4956867;29;20445;-61
2021/01/13 12:50:24;;;;;;;5.60;2.40;;;4.30;99.90;;;;;;4954531;29;20440;-60
2021/01/13 12:52:53;;;;;;;4.23;1.30;;;4.40;99.90;;;;;;4958723;29;20808;-61
2021/01/13 12:55:20;;;;;;;2.07;1.73;;;4.40;99.90;;;;;;4954834;29;20451;-61
2021/01/13 12:57:47;;;;;;;5.80;1.57;;;4.40;99.90;;;;;;4960516;29;20520;-62
2021/01/13 13:00:15;;;;;;;4.30;1.60;;;4.40;99.90;;;;;;4964255;29;20476;-62
2021/01/13 13:02:43;;;;;;;12.37;2.53;;;4.50;99.90;;;;;;4968498;29;20436;-63
2021/01/13 13:05:11;;;;;;;5.30;2.70;;;4.50;99.90;;;;;;4956779;29;20491;-62
2021/01/13 13:07:38;;;;;;;6.23;2.80;;;4.50;99.90;;;;;;4957332;29;20476;-62
2021/01/13 13:10:06;;;;;;;4.20;2.50;;;4.50;99.90;;;;;;4960049;29;21013;-64
2021/01/13 13:12:33;;;;;;;5.77;1.90;;;4.50;99.90;;;;;;4957858;29;20512;-65
2021/01/13 13:15:07;;;;;;;12.70;1.97;;;4.60;99.90;;;;;;4968074;29;20456;-65
2021/01/13 13:17:40;;;;;;;2.23;1.90;;;4.60;99.90;;;;;;4957672;29;20480;-63
2021/01/13 13:20:09;;;;;;;4.47;1.57;;;4.50;99.90;;;;;;4965538;29;20484;-62
2021/01/13 13:22:36;;;;;;;2.90;1.63;;;4.50;99.90;;;;;;4969177;29;20479;-64
2021/01/13 13:25:03;;;;;;;13.73;3.07;;;4.50;99.90;;;;;;4962641;29;20457;-66
2021/01/13 13:27:35;;;;;;;3.30;1.93;;;4.50;99.90;;;;;;4970206;29;20460;-65
2021/01/13 13:30:08;;;;;;;10.40;1.77;;;4.50;99.90;;;;;;4962272;29;20475;-67
2021/01/13 13:32:37;;;;;;;7.33;3.10;;;4.50;99.90;;;;;;4963277;29;20441;-67
2021/01/13 13:35:08;;;;;;;5.93;1.70;;;4.50;99.90;;;;;;4966586;29;20448;-67
2021/01/13 13:37:35;;;;;;;4.60;1.90;;;4.50;99.90;;;;;;4966058;29;20488;-65